createdAt,value
2022-07-26T00:01:42.817Z,3.65
2022-07-26T00:04:14.694Z,3.92
2022-07-26T00:06:46.333Z,3.90
2022-07-26T00:09:17.980Z,3.60
2022-07-26T00:11:49.822Z,3.90
2022-07-26T00:14:21.691Z,4.07
2022-07-26T00:16:53.493Z,3.83
2022-07-26T00:19:25.373Z,4.10
2022-07-26T00:22:15.807Z,3.78
2022-07-26T00:24:47.613Z,4.03
2022-07-26T00:27:19.362Z,4.20
2022-07-26T00:29:51.139Z,4.18
2022-07-26T00:32:23.001Z,4.22
2022-07-26T00:34:54.935Z,3.80
2022-07-26T00:37:26.665Z,3.97
2022-07-26T00:39:58.383Z,4.00
2022-07-26T00:42:30.123Z,4.20
2022-07-26T00:45:01.900Z,4.20
2022-07-26T00:47:33.609Z,3.63
2022-07-26T00:50:06.474Z,4.35
2022-07-26T00:52:38.174Z,4.22
2022-07-26T00:55:10.113Z,4.53
2022-07-26T00:57:41.782Z,4.07
2022-07-26T01:00:15.825Z,4.30
2022-07-26T01:02:47.583Z,4.13
2022-07-26T01:05:19.345Z,4.10
2022-07-26T01:07:51.000Z,4.28
2022-07-26T01:10:22.914Z,4.30
2022-07-26T01:12:54.571Z,4.45
2022-07-26T01:15:26.245Z,4.35
2022-07-26T01:17:58.364Z,4.75
2022-07-26T01:20:30.137Z,4.25
2022-07-26T01:23:01.822Z,3.85
2022-07-26T01:25:42.390Z,4.20
2022-07-26T01:28:20.237Z,4.22
2022-07-26T01:30:52.381Z,4.40
2022-07-26T01:33:28.146Z,4.25
2022-07-26T01:36:00.007Z,4.50
2022-07-26T01:38:31.738Z,4.15
2022-07-26T01:41:03.435Z,4.70
2022-07-26T01:43:35.677Z,4.93
2022-07-26T01:46:07.744Z,4.90
2022-07-26T01:48:39.567Z,4.70
2022-07-26T01:51:11.319Z,4.95
2022-07-26T01:53:45.804Z,4.40
2022-07-26T01:56:17.445Z,4.38
2022-07-26T01:58:49.180Z,4.57
2022-07-26T02:01:38.792Z,4.72
2022-07-26T02:04:31.428Z,4.60
2022-07-26T02:07:05.389Z,5.03
2022-07-26T02:09:39.806Z,4.55
2022-07-26T02:12:11.810Z,4.70
2022-07-26T02:14:43.537Z,4.75
2022-07-26T02:17:15.453Z,4.75
2022-07-26T02:19:47.262Z,4.95
2022-07-26T02:22:20.065Z,4.32
2022-07-26T02:24:51.794Z,4.88
2022-07-26T02:27:23.434Z,4.70
2022-07-26T02:29:55.091Z,4.75
2022-07-26T02:32:26.720Z,4.72
2022-07-26T02:34:58.393Z,5.30
2022-07-26T02:37:30.115Z,4.82
2022-07-26T02:40:04.918Z,5.10
2022-07-26T02:42:37.021Z,4.40
2022-07-26T02:45:09.179Z,5.03
2022-07-26T02:47:50.988Z,5.05
2022-07-26T02:50:24.274Z,4.80
2022-07-26T02:52:56.857Z,5.35
2022-07-26T02:55:28.560Z,4.43
2022-07-26T02:58:00.202Z,4.85
2022-07-26T03:00:32.016Z,4.68
2022-07-26T03:03:03.844Z,5.53
2022-07-26T03:05:35.757Z,4.88
2022-07-26T03:08:07.712Z,4.57
2022-07-26T03:10:39.534Z,4.88
2022-07-26T03:13:11.658Z,4.53
2022-07-26T03:15:43.416Z,4.93
2022-07-26T03:18:15.138Z,5.18
2022-07-26T03:20:47.026Z,5.05
2022-07-26T03:23:18.721Z,5.00
2022-07-26T03:25:50.565Z,4.40
2022-07-26T03:28:22.189Z,4.68
2022-07-26T03:30:54.107Z,5.32
2022-07-26T03:33:25.890Z,4.55
2022-07-26T03:35:57.985Z,5.15
2022-07-26T03:38:29.674Z,5.00
2022-07-26T03:41:01.468Z,5.25
2022-07-26T03:43:36.425Z,5.07
2022-07-26T03:46:08.228Z,5.22
2022-07-26T03:48:40.108Z,5.30
2022-07-26T03:51:11.884Z,5.53
2022-07-26T03:53:43.613Z,5.43
2022-07-26T03:56:33.350Z,5.63
2022-07-26T03:59:06.413Z,5.57
2022-07-26T04:01:42.141Z,4.95
2022-07-26T04:04:14.982Z,4.82
2022-07-26T04:06:47.517Z,4.57
2022-07-26T04:09:19.347Z,4.82
2022-07-26T04:11:51.008Z,4.80
2022-07-26T04:14:22.682Z,4.78
2022-07-26T04:16:54.360Z,4.50
2022-07-26T04:19:26.061Z,4.18
2022-07-26T04:25:54.822Z,4.07
2022-07-26T04:28:29.508Z,4.05
2022-07-26T04:31:01.581Z,4.03
2022-07-26T04:33:33.256Z,4.38
2022-07-26T04:36:05.305Z,4.65
2022-07-26T04:38:36.995Z,4.47
2022-07-26T04:41:08.774Z,4.53
2022-07-26T04:43:40.526Z,4.40
2022-07-26T04:46:12.324Z,4.78
2022-07-26T04:48:44.051Z,4.32
2022-07-26T04:51:15.757Z,4.43
2022-07-26T04:53:47.414Z,4.50
2022-07-26T04:56:19.166Z,4.78
2022-07-26T04:58:50.886Z,4.65
2022-07-26T05:01:22.679Z,4.57
2022-07-26T05:03:54.382Z,4.65
2022-07-26T05:06:26.014Z,4.22
2022-07-26T05:08:58.138Z,4.05
2022-07-26T05:11:29.779Z,4.03
2022-07-26T05:14:01.476Z,3.90
2022-07-26T05:16:33.169Z,4.22
2022-07-26T05:19:05.191Z,4.95
2022-07-26T05:21:36.961Z,4.18
2022-07-26T05:24:09.302Z,3.70
2022-07-26T05:26:41.347Z,4.07
2022-07-26T05:29:12.998Z,4.22
2022-07-26T05:31:44.738Z,4.90
2022-07-26T05:34:16.505Z,3.90
2022-07-26T05:36:48.136Z,4.40
2022-07-26T05:39:19.831Z,4.20
2022-07-26T05:41:51.464Z,4.22
2022-07-26T05:44:24.799Z,3.83
2022-07-26T05:46:58.356Z,4.40
2022-07-26T05:49:39.845Z,3.65
2022-07-26T05:52:12.598Z,4.13
2022-07-26T05:54:44.629Z,4.13
2022-07-26T05:57:16.405Z,4.00
2022-07-26T05:59:48.425Z,4.15
2022-07-26T06:02:20.636Z,3.88
2022-07-26T06:04:52.376Z,4.43
2022-07-26T06:07:24.115Z,4.30
2022-07-26T06:09:55.779Z,4.32
2022-07-26T06:12:27.493Z,4.88
2022-07-26T06:14:59.242Z,4.38
2022-07-26T06:17:31.104Z,4.40
2022-07-26T06:20:02.834Z,4.60
2022-07-26T06:22:34.557Z,4.90
2022-07-26T06:25:06.954Z,4.35
2022-07-26T06:27:38.601Z,3.83
2022-07-26T06:30:10.914Z,3.70
2022-07-26T06:32:45.407Z,4.78
2022-07-26T06:35:17.029Z,4.22
2022-07-26T06:37:48.687Z,3.88
2022-07-26T06:40:20.459Z,3.83
2022-07-26T06:42:52.269Z,3.40
2022-07-26T06:45:23.910Z,3.60
2022-07-26T06:47:55.891Z,3.42
2022-07-26T06:50:28.113Z,3.83
2022-07-26T06:52:59.809Z,3.95
2022-07-26T06:55:31.440Z,3.80
2022-07-26T06:58:03.506Z,3.75
2022-07-26T07:00:35.387Z,3.63
2022-07-26T07:03:07.048Z,3.97
2022-07-26T07:05:38.921Z,4.90
2022-07-26T07:08:10.724Z,3.83
2022-07-26T07:10:43.257Z,3.85
2022-07-26T07:13:14.915Z,3.65
2022-07-26T07:15:46.613Z,3.63
2022-07-26T07:18:18.712Z,3.38
2022-07-26T07:20:50.509Z,3.28
2022-07-26T07:23:23.287Z,3.45
2022-07-26T07:25:54.969Z,3.33
2022-07-26T07:28:27.637Z,2.95
2022-07-26T07:30:59.563Z,4.00
2022-07-26T07:33:36.413Z,3.40
2022-07-26T07:36:08.597Z,3.05
2022-07-26T07:38:42.856Z,3.50
2022-07-26T07:41:14.732Z,3.22
2022-07-26T07:43:46.437Z,3.10
2022-07-26T07:46:18.318Z,3.40
2022-07-26T07:48:50.106Z,3.15
2022-07-26T07:51:21.960Z,3.05
2022-07-26T07:53:57.318Z,3.70
2022-07-26T07:56:29.556Z,3.10
2022-07-26T07:59:01.257Z,3.10
2022-07-26T08:01:39.694Z,3.50
2022-07-26T08:04:12.451Z,3.60
2022-07-26T08:06:50.450Z,3.35
2022-07-26T08:09:23.402Z,3.17
2022-07-26T08:11:55.090Z,2.75
2022-07-26T08:14:26.738Z,2.97
2022-07-26T08:16:59.004Z,3.20
2022-07-26T08:19:41.762Z,2.72
2022-07-26T08:22:14.081Z,2.65
2022-07-26T08:24:46.915Z,3.63
2022-07-26T08:27:18.657Z,2.92
2022-07-26T08:29:50.330Z,3.05
2022-07-26T08:32:22.041Z,2.45
2022-07-26T08:34:53.729Z,2.53
2022-07-26T08:37:45.557Z,2.20
2022-07-26T08:40:17.395Z,3.03
2022-07-26T08:42:53.350Z,3.38
2022-07-26T08:45:29.044Z,2.95
2022-07-26T08:48:19.099Z,2.72
2022-07-26T08:50:50.950Z,2.95
2022-07-26T08:53:22.747Z,3.00
2022-07-26T08:56:06.979Z,3.10
2022-07-26T08:58:40.986Z,4.18
2022-07-26T09:01:13.217Z,2.80
2022-07-26T09:03:45.470Z,3.10
2022-07-26T09:06:19.126Z,2.67
2022-07-26T09:08:51.805Z,3.20
2022-07-26T09:11:23.328Z,3.33
2022-07-26T09:13:55.874Z,3.10
2022-07-26T09:16:27.788Z,3.22
2022-07-26T09:19:19.179Z,3.33
2022-07-26T09:21:51.882Z,3.15
2022-07-26T09:24:30.536Z,2.55
2022-07-26T09:27:03.451Z,2.72
2022-07-26T09:29:51.356Z,3.60
2022-07-26T09:32:24.440Z,2.72
2022-07-26T09:34:58.790Z,3.33
2022-07-26T09:37:38.283Z,3.13
2022-07-26T09:40:11.872Z,3.00
2022-07-26T09:42:57.720Z,2.85
2022-07-26T09:45:30.402Z,2.60
2022-07-26T09:48:02.734Z,2.80
2022-07-26T09:50:34.445Z,2.78
2022-07-26T09:53:12.747Z,2.47
2022-07-26T09:55:45.174Z,2.72
2022-07-26T09:58:17.574Z,2.15
2022-07-26T10:00:49.391Z,2.75
2022-07-26T10:03:21.038Z,2.60
2022-07-26T10:05:52.827Z,2.25
2022-07-26T10:08:24.536Z,2.85
2022-07-26T10:11:02.313Z,3.40
2022-07-26T10:13:34.048Z,2.88
2022-07-26T10:16:05.906Z,3.50
2022-07-26T10:18:40.722Z,3.53
2022-07-26T10:21:23.757Z,3.25
2022-07-26T10:23:57.786Z,3.05
2022-07-26T10:26:32.446Z,2.80
2022-07-26T10:29:19.396Z,3.28
2022-07-26T10:32:15.219Z,3.47
2022-07-26T10:34:46.946Z,3.08
2022-07-26T10:37:23.765Z,3.05
2022-07-26T10:40:19.334Z,2.92
2022-07-26T10:42:51.044Z,3.22
2022-07-26T10:45:23.444Z,2.95
2022-07-26T10:48:14.764Z,3.17
2022-07-26T10:50:48.132Z,3.13
2022-07-26T10:53:23.761Z,3.55
2022-07-26T10:55:56.596Z,2.92
2022-07-26T10:58:28.318Z,3.30
2022-07-26T11:01:01.441Z,3.22
2022-07-26T11:03:41.117Z,3.15
2022-07-26T11:06:14.414Z,2.83
2022-07-26T11:08:48.392Z,2.80
2022-07-26T11:11:33.534Z,2.28
2022-07-26T11:14:12.950Z,1.92
2022-07-26T11:16:49.975Z,1.63
2022-07-26T11:19:24.594Z,1.77
2022-07-26T11:22:00.302Z,2.03
2022-07-26T11:24:32.015Z,1.70
2022-07-26T11:27:03.931Z,1.90
2022-07-26T11:29:38.910Z,1.85
2022-07-26T11:32:22.022Z,1.70
2022-07-26T11:35:01.054Z,1.52
2022-07-26T11:37:32.721Z,1.77
2022-07-26T11:40:04.742Z,1.90
2022-07-26T11:42:36.425Z,1.67
2022-07-26T11:45:10.231Z,1.70
2022-07-26T11:47:42.279Z,1.90
2022-07-26T11:50:22.100Z,1.63
2022-07-26T11:52:54.551Z,1.83
2022-07-26T11:55:27.618Z,1.40
2022-07-26T11:58:04.682Z,1.40
2022-07-26T12:00:36.368Z,1.30
2022-07-26T12:03:08.249Z,1.45
2022-07-26T12:05:41.855Z,1.10
2022-07-26T12:08:15.056Z,1.35
2022-07-26T12:10:54.030Z,1.40
2022-07-26T12:13:26.358Z,1.40
2022-07-26T12:15:58.417Z,1.20
2022-07-26T12:18:30.970Z,1.40
2022-07-26T12:21:07.064Z,1.42
2022-07-26T12:23:46.435Z,0.85
2022-07-26T12:26:28.606Z,1.10
2022-07-26T12:29:18.840Z,1.20
2022-07-26T12:32:11.869Z,1.90
2022-07-26T12:35:04.293Z,1.00
2022-07-26T12:37:48.081Z,1.20
2022-07-26T12:40:23.888Z,1.33
2022-07-26T12:43:02.043Z,1.15
2022-07-26T12:45:34.949Z,1.00
2022-07-26T12:48:11.328Z,1.33
2022-07-26T12:50:43.069Z,1.23
2022-07-26T12:53:14.729Z,1.38
2022-07-26T12:55:46.549Z,1.40
2022-07-26T12:58:18.330Z,1.13
2022-07-26T13:00:50.260Z,0.93
2022-07-26T13:03:22.056Z,1.27
2022-07-26T13:05:53.781Z,1.20
2022-07-26T13:08:25.614Z,1.02
2022-07-26T13:11:00.125Z,1.10
2022-07-26T13:13:32.060Z,0.90
2022-07-26T13:16:07.967Z,1.52
2022-07-26T13:18:43.076Z,1.08
2022-07-26T13:21:14.899Z,1.15
2022-07-26T13:23:46.545Z,1.00
2022-07-26T13:26:18.334Z,1.20
2022-07-26T13:28:50.519Z,1.00
2022-07-26T13:31:22.428Z,0.77
2022-07-26T13:33:54.181Z,1.30
2022-07-26T13:36:25.953Z,1.10
2022-07-26T13:38:57.817Z,1.13
2022-07-26T13:41:29.904Z,0.90
2022-07-26T13:44:02.665Z,1.15
2022-07-26T13:46:34.671Z,1.30
2022-07-26T13:49:06.588Z,1.08
2022-07-26T13:51:57.025Z,2.10
2022-07-26T13:54:30.537Z,1.02
2022-07-26T13:57:03.486Z,2.40
2022-07-26T13:59:35.163Z,1.42
2022-07-26T14:02:07.375Z,0.80
2022-07-26T14:04:39.210Z,3.50
2022-07-26T14:07:10.949Z,1.52
2022-07-26T14:09:42.609Z,0.80
2022-07-26T14:12:14.318Z,1.17
2022-07-26T14:14:46.001Z,1.30
2022-07-26T14:17:17.761Z,0.88
2022-07-26T14:19:49.457Z,1.10
2022-07-26T14:22:21.097Z,0.70
2022-07-26T14:24:52.727Z,1.08
2022-07-26T14:27:24.386Z,1.30
2022-07-26T14:29:56.317Z,1.02
2022-07-26T14:32:28.154Z,1.42
2022-07-26T14:34:59.776Z,1.50
2022-07-26T14:37:42.977Z,1.30
2022-07-26T14:40:17.727Z,1.15
2022-07-26T14:42:49.573Z,1.17
2022-07-26T14:45:21.210Z,1.52
2022-07-26T14:47:52.871Z,1.00
2022-07-26T14:50:26.092Z,1.30
2022-07-26T14:52:58.026Z,1.30
2022-07-26T14:55:30.614Z,0.98
2022-07-26T14:58:02.270Z,0.95
2022-07-26T15:00:34.141Z,0.70
2022-07-26T15:03:05.951Z,1.27
2022-07-26T15:05:37.581Z,0.80
2022-07-26T15:08:09.208Z,0.98
2022-07-26T15:10:41.028Z,1.00
2022-07-26T15:13:14.918Z,0.80
2022-07-26T15:15:46.771Z,0.98
2022-07-26T15:18:18.495Z,1.20
2022-07-26T15:20:50.184Z,1.10
2022-07-26T15:23:21.906Z,0.95
2022-07-26T15:25:53.670Z,0.90
2022-07-26T15:28:25.375Z,1.00
2022-07-26T15:30:57.162Z,0.98
2022-07-26T15:33:28.929Z,1.20
2022-07-26T15:36:05.703Z,1.00
2022-07-26T15:38:37.898Z,1.02
2022-07-26T15:41:09.625Z,1.10
2022-07-26T15:43:44.188Z,0.98
2022-07-26T15:46:20.810Z,0.98
2022-07-26T15:48:54.789Z,0.90
2022-07-26T15:51:26.658Z,0.75
2022-07-26T15:53:58.628Z,0.75
2022-07-26T15:56:30.314Z,0.57
2022-07-26T15:59:02.144Z,0.70
2022-07-26T16:01:34.342Z,0.77
2022-07-26T16:04:06.149Z,0.80
2022-07-26T16:06:37.786Z,1.10
2022-07-26T16:09:18.530Z,0.88
2022-07-26T16:11:50.894Z,0.75
2022-07-26T16:14:22.636Z,0.80
2022-07-26T16:16:54.443Z,1.33
2022-07-26T16:19:26.085Z,0.98
2022-07-26T16:21:58.379Z,0.80
2022-07-26T16:24:30.213Z,0.98
2022-07-26T16:27:01.884Z,0.90
2022-07-26T16:29:33.517Z,0.95
2022-07-26T16:32:08.073Z,0.88
2022-07-26T16:34:39.835Z,0.70
2022-07-26T16:37:11.474Z,0.68
2022-07-26T16:39:43.209Z,0.82
2022-07-26T16:42:14.994Z,0.70
2022-07-26T16:44:46.626Z,0.80
2022-07-26T16:47:18.279Z,0.70
2022-07-26T16:49:50.039Z,1.10
2022-07-26T16:52:22.867Z,0.88
2022-07-26T16:54:54.576Z,0.80
2022-07-26T16:57:26.342Z,1.58
2022-07-26T17:00:00.540Z,0.90
2022-07-26T17:02:32.276Z,0.85
2022-07-26T17:05:04.406Z,0.93
2022-07-26T17:07:38.910Z,0.80
2022-07-26T17:10:10.873Z,1.05
2022-07-26T17:12:42.508Z,0.95
2022-07-26T17:15:15.863Z,0.82
2022-07-26T17:17:48.987Z,0.98
2022-07-26T17:20:20.924Z,0.90
2022-07-26T17:22:54.181Z,0.88
2022-07-26T17:25:25.886Z,0.82
2022-07-26T17:27:57.538Z,0.68
2022-07-26T17:30:29.312Z,0.90
2022-07-26T17:33:01.039Z,1.05
2022-07-26T17:35:32.828Z,1.05
2022-07-26T17:38:04.837Z,0.93
2022-07-26T17:40:36.920Z,0.88
2022-07-26T17:43:10.173Z,0.88
2022-07-26T17:45:44.926Z,0.93
2022-07-26T17:48:16.626Z,0.80
2022-07-26T17:50:48.390Z,0.77
2022-07-26T17:53:21.780Z,0.50
2022-07-26T17:56:06.361Z,0.90
2022-07-26T17:58:38.717Z,0.98
2022-07-26T18:01:10.513Z,1.00
2022-07-26T18:03:42.378Z,0.90
2022-07-26T18:06:14.472Z,0.93
2022-07-26T18:08:46.261Z,0.80
2022-07-26T18:11:18.025Z,0.70
2022-07-26T18:13:49.713Z,0.68
2022-07-26T18:16:21.419Z,0.85
2022-07-26T18:18:53.413Z,0.95
2022-07-26T18:21:25.098Z,0.82
2022-07-26T18:24:15.795Z,1.00
2022-07-26T18:26:47.816Z,1.08
2022-07-26T18:29:19.561Z,0.73
2022-07-26T18:31:51.614Z,0.90
2022-07-26T18:34:23.313Z,1.35
2022-07-26T18:36:55.197Z,1.05
2022-07-26T18:39:32.868Z,0.70
2022-07-26T18:42:04.922Z,1.00
2022-07-26T18:44:39.609Z,0.85
2022-07-26T18:47:11.355Z,1.00
2022-07-26T18:49:43.679Z,1.25
2022-07-26T18:52:15.417Z,1.02
2022-07-26T18:54:47.870Z,0.80
2022-07-26T18:57:19.515Z,0.85
2022-07-26T18:59:51.173Z,0.82
2022-07-26T19:02:22.928Z,0.70
2022-07-26T19:04:54.582Z,0.85
2022-07-26T19:07:26.253Z,1.10
2022-07-26T19:09:58.975Z,1.30
2022-07-26T19:12:30.626Z,0.57
2022-07-26T19:15:02.612Z,1.27
2022-07-26T19:17:34.400Z,1.00
2022-07-26T19:20:07.191Z,1.40
2022-07-26T19:22:38.878Z,0.90
2022-07-26T19:25:10.893Z,0.70
2022-07-26T19:27:42.603Z,1.45
2022-07-26T19:30:15.898Z,0.95
2022-07-26T19:32:47.656Z,0.82
2022-07-26T19:35:19.310Z,1.23
2022-07-26T19:37:50.964Z,1.52
2022-07-26T19:40:22.942Z,0.98
2022-07-26T19:42:54.636Z,0.95
2022-07-26T19:45:26.367Z,1.05
2022-07-26T19:47:58.130Z,1.50
2022-07-26T19:50:29.850Z,1.00
2022-07-26T19:53:01.756Z,0.98
2022-07-26T19:55:33.542Z,1.55
2022-07-26T19:58:05.184Z,1.10
2022-07-26T20:00:37.008Z,1.15
2022-07-26T20:03:08.716Z,1.25
2022-07-26T20:05:43.269Z,1.00
2022-07-26T20:08:14.938Z,1.10
2022-07-26T20:10:46.693Z,1.05
2022-07-26T20:13:18.354Z,1.20
2022-07-26T20:15:50.378Z,0.80
2022-07-26T20:18:24.839Z,1.20
2022-07-26T20:20:57.375Z,0.85
2022-07-26T20:23:29.091Z,1.25
2022-07-26T20:26:01.265Z,1.20
2022-07-26T20:28:32.991Z,1.25
2022-07-26T20:31:04.845Z,0.90
2022-07-26T20:33:36.640Z,1.25
2022-07-26T20:36:08.422Z,1.25
2022-07-26T20:38:40.132Z,1.30
2022-07-26T20:41:11.985Z,1.60
2022-07-26T20:43:44.198Z,1.15
2022-07-26T20:46:16.161Z,1.00
2022-07-26T20:48:48.059Z,0.95
2022-07-26T20:51:20.389Z,1.20
2022-07-26T20:53:52.238Z,1.30
2022-07-26T20:56:24.051Z,1.10
2022-07-26T20:58:55.764Z,1.30
2022-07-26T21:01:27.631Z,1.20
2022-07-26T21:03:59.378Z,1.95
2022-07-26T21:06:33.266Z,1.35
2022-07-26T21:09:10.189Z,1.10
2022-07-26T21:11:42.201Z,1.25
2022-07-26T21:14:14.117Z,1.38
2022-07-26T21:16:45.848Z,1.63
2022-07-26T21:19:17.533Z,1.38
2022-07-26T21:21:49.300Z,1.10
2022-07-26T21:24:21.514Z,1.80
2022-07-26T21:26:55.200Z,1.30
2022-07-26T21:29:27.907Z,1.30
2022-07-26T21:31:59.616Z,1.50
2022-07-26T21:34:31.501Z,1.33
2022-07-26T21:37:04.501Z,1.90
2022-07-26T21:39:36.172Z,1.13
2022-07-26T21:42:08.117Z,1.33
2022-07-26T21:44:39.806Z,1.33
2022-07-26T21:47:11.445Z,1.20
2022-07-26T21:49:43.084Z,1.50
2022-07-26T21:52:14.807Z,1.58
2022-07-26T21:54:46.476Z,1.30
2022-07-26T21:57:18.120Z,1.92
2022-07-26T21:59:49.994Z,1.67
2022-07-26T22:02:21.803Z,1.75
2022-07-26T22:04:53.592Z,1.65
2022-07-26T22:07:25.285Z,1.48
2022-07-26T22:09:56.989Z,1.17
2022-07-26T22:12:30.042Z,1.13
2022-07-26T22:15:01.958Z,1.50
2022-07-26T22:17:33.583Z,1.80
2022-07-26T22:20:07.141Z,1.63
2022-07-26T22:22:38.881Z,1.95
2022-07-26T22:25:10.605Z,2.10
2022-07-26T22:27:42.388Z,2.35
2022-07-26T22:30:14.017Z,2.17
2022-07-26T22:32:45.754Z,1.70
2022-07-26T22:35:17.753Z,1.58
2022-07-26T22:37:49.510Z,2.08
2022-07-26T22:40:22.282Z,1.27
2022-07-26T22:42:53.957Z,1.73
2022-07-26T22:45:26.575Z,1.50
2022-07-26T22:47:58.528Z,1.90
2022-07-26T22:50:30.984Z,1.92
2022-07-26T22:53:03.365Z,1.60
2022-07-26T22:55:35.093Z,2.30
2022-07-26T22:58:06.765Z,1.60
2022-07-26T23:00:38.504Z,1.40
2022-07-26T23:03:15.235Z,1.77
2022-07-26T23:05:52.524Z,1.98
2022-07-26T23:08:45.871Z,1.65
2022-07-26T23:11:16.056Z,1.80
2022-07-26T23:13:47.695Z,2.28
2022-07-26T23:16:19.424Z,2.00
2022-07-26T23:18:54.560Z,1.67
2022-07-26T23:21:27.700Z,1.55
2022-07-26T23:23:59.338Z,2.00
2022-07-26T23:26:30.993Z,1.85
2022-07-26T23:29:02.889Z,1.80
2022-07-26T23:31:34.670Z,1.33
2022-07-26T23:34:09.558Z,1.70
2022-07-26T23:36:41.350Z,1.90
2022-07-26T23:39:13.476Z,1.50
2022-07-26T23:41:45.483Z,1.70
2022-07-26T23:44:17.348Z,1.35
2022-07-26T23:46:49.151Z,1.90
2022-07-26T23:49:20.985Z,2.28
2022-07-26T23:51:52.815Z,2.30
2022-07-26T23:54:24.550Z,1.80
2022-07-26T23:56:56.428Z,1.80
2022-07-26T23:59:28.188Z,2.88
